
Distance (Route):
Temperature : -47.8°C
Humidity : 0%
Pressure : 20.4hPa| Receiver | Date | Latitude | Longitude | Direction | Speed | Altitude | Climb | Temperature | Humidity | Pressure | Voltage | Killtimer | Uptime | BKT | XDATA |
|---|---|---|---|---|---|---|---|---|---|---|---|---|---|---|---|
| AA1-15 | 2026-09-02 12:59:24 | -40.00062 | -12.70334 | 0° | 0km/h | 159087m | 0m/s | -47.8°C | 0% | 20.4hPa | 2.3V | 00:00:00 | 00:00:00 | 00:00:00 | |
| AA1-15 | 2026-09-02 12:59:08 | -40.00062 | -12.70334 | 0° | 0km/h | 159087m | 0m/s | -47.3°C | 0% | 17.6hPa | 2.3V | 00:00:00 | 00:00:00 | 00:00:00 | |
| AA1-15 | 2026-09-02 12:58:49 | -40.00062 | -12.70334 | 0° | 0km/h | 159087m | 0m/s | -44.2°C | 0% | 14.4hPa | 2.3V | 00:00:00 | 00:00:00 | 00:00:00 | |
| AA1-15 | 2026-09-02 12:58:37 | -40.00062 | -12.70334 | 0° | 0km/h | 159087m | 0m/s | -42.8°C | 0% | 12.7hPa | 2.3V | 00:00:00 | 00:00:00 | 00:00:00 | |
| AA1-15 | 2026-09-02 12:58:26 | -40.00062 | -12.70334 | 0° | 0km/h | 159087m | 0m/s | -40.4°C | 0.1% | 11hPa | 2.3V | 00:00:00 | 00:00:00 | 00:00:00 | |
| AA1-15 | 2026-09-02 12:58:10 | -40.00062 | -12.70334 | 0° | 0km/h | 159087m | 0m/s | -39.3°C | 0.3% | 8.9hPa | 2.3V | 00:00:00 | 00:00:00 | 00:00:00 | |
| AA1-15 | 2026-09-02 12:57:59 | -40.00062 | -12.70334 | 0° | 0km/h | 159087m | 0m/s | -36.3°C | 0.6% | 7.6hPa | 2.3V | 00:00:00 | 00:00:00 | 00:00:00 | |
| AA1-15 | 2026-09-02 12:57:47 | -40.00062 | -12.70334 | 0° | 0km/h | 159087m | 0m/s | -33.3°C | 0.7% | 6.4hPa | 2.3V | 00:00:00 | 00:00:00 | 00:00:00 | |
| AA1-15 | 2026-09-02 12:57:37 | -40.00062 | -12.70334 | 0° | 0km/h | 159087m | 0m/s | -32.4°C | 0.8% | 5.5hPa | 2.3V | 00:00:00 | 00:00:00 | 00:00:00 | |
| AA1-15 | 2026-09-02 12:57:27 | -40.00062 | -12.70334 | 0° | 0km/h | 159087m | 0m/s | -32.5°C | 0.9% | 4.9hPa | 2.3V | 00:00:00 | 00:00:00 | 00:00:00 | |
| AA1-15 | 2026-09-02 12:57:13 | -40.00062 | -12.70334 | 0° | 0km/h | 159087m | 0m/s | -31.8°C | 0.8% | 4.8hPa | 2.3V | 00:00:00 | 00:00:00 | 00:00:00 | |
| AA1-15 | 2026-09-02 12:57:03 | -40.00062 | -12.70334 | 0° | 0km/h | 159087m | 0m/s | -32°C | 0.8% | 4.9hPa | 2.3V | 00:00:00 | 00:00:00 | 00:00:00 | |
| AA1-15 | 2026-09-02 12:56:52 | -40.00062 | -12.70334 | 0° | 0km/h | 159087m | 0m/s | -31.9°C | 0.9% | 5hPa | 2.3V | 00:00:00 | 00:00:00 | 00:00:00 | |
| AA1-15 | 2026-09-02 12:56:41 | -40.00062 | -12.70334 | 0° | 0km/h | 159087m | 0m/s | -31.7°C | 0.9% | 5hPa | 2.3V | 00:00:00 | 00:00:00 | 00:00:00 | |
| AA1-15 | 2026-09-02 12:56:31 | -40.00062 | -12.70334 | 0° | 0km/h | 159087m | 0m/s | -31.8°C | 0.9% | 5.1hPa | 2.3V | 00:00:00 | 00:00:00 | 00:00:00 | |
| AA1-15 | 2026-09-02 12:56:19 | -40.00062 | -12.70334 | 0° | 0km/h | 159087m | 0m/s | -31.6°C | 0.9% | 5.2hPa | 2.3V | 00:00:00 | 00:00:00 | 00:00:00 | |
| AA1-15 | 2026-09-02 12:56:08 | -40.00062 | -12.70334 | 0° | 0km/h | 159087m | 0m/s | -31.8°C | 0.9% | 5.3hPa | 2.3V | 00:00:00 | 00:00:00 | 00:00:00 | |
| AA1-15 | 2026-09-02 12:55:57 | -40.00062 | -12.70334 | 0° | 0km/h | 159087m | 0m/s | -32°C | 0.9% | 5.4hPa | 2.3V | 00:00:00 | 00:00:00 | 00:00:00 | |
| AA1-15 | 2026-09-02 12:55:46 | -40.00062 | -12.70334 | 0° | 0km/h | 159087m | 0m/s | -32.4°C | 0.9% | 5.4hPa | 2.3V | 00:00:00 | 00:00:00 | 00:00:00 | |
| AA1-15 | 2026-09-02 12:55:36 | -40.00062 | -12.70334 | 0° | 0km/h | 159087m | 0m/s | -32.5°C | 0.9% | 5.5hPa | 2.3V | 00:00:00 | 00:00:00 | 00:00:00 | |
| AA1-15 | 2026-09-02 12:55:26 | -40.00062 | -12.70334 | 0° | 0km/h | 159087m | 0m/s | -32.5°C | 0.8% | 5.6hPa | 2.3V | 00:00:00 | 00:00:00 | 00:00:00 | |
| AA1-15 | 2026-09-02 12:55:14 | -40.00062 | -12.70334 | 0° | 0km/h | 159087m | 0m/s | -32.7°C | 0.9% | 5.6hPa | 2.3V | 00:00:00 | 00:00:00 | 00:00:00 | |
| AA1-15 | 2026-09-02 12:55:04 | -40.00062 | -12.70334 | 0° | 0km/h | 159087m | 0m/s | -32.9°C | 0.9% | 5.7hPa | 2.3V | 00:00:00 | 00:00:00 | 00:00:00 | |
| AA1-15 | 2026-09-02 12:54:52 | -40.00062 | -12.70334 | 0° | 0km/h | 159087m | 0m/s | -33.3°C | 0.9% | 5.8hPa | 2.3V | 00:00:00 | 00:00:00 | 00:00:00 | |
| AA1-15 | 2026-09-02 12:54:41 | -40.00062 | -12.70334 | 0° | 0km/h | 159087m | 0m/s | -33.5°C | 0.9% | 5.9hPa | 2.3V | 00:00:00 | 00:00:00 | 00:00:00 | |
| AA1-15 | 2026-09-02 12:54:30 | -40.00062 | -12.70334 | 0° | 0km/h | 159087m | 0m/s | -33.4°C | 0.9% | 6hPa | 2.3V | 00:00:00 | 00:00:00 | 00:00:00 | |
| AA1-15 | 2026-09-02 12:54:20 | -40.00062 | -12.70334 | 0° | 0km/h | 159087m | 0m/s | -33°C | 0.9% | 6hPa | 2.3V | 00:00:00 | 00:00:00 | 00:00:00 | |
| AA1-15 | 2026-09-02 12:54:10 | -40.00062 | -12.70334 | 0° | 0km/h | 159087m | 0m/s | -33.2°C | 0.9% | 6.1hPa | 2.3V | 00:00:00 | 00:00:00 | 00:00:00 | |
| AA1-15 | 2026-09-02 12:53:59 | -40.00062 | -12.70334 | 0° | 0km/h | 159087m | 0m/s | -33.5°C | 0.8% | 6.1hPa | 2.3V | 00:00:00 | 00:00:00 | 00:00:00 | |
| AA1-15 | 2026-09-02 12:53:49 | -40.00062 | -12.70334 | 0° | 0km/h | 159087m | 0m/s | -33.6°C | 0.8% | 6.2hPa | 2.3V | 00:00:00 | 00:00:00 | 00:00:00 | |
| AA1-15 | 2026-09-02 12:53:38 | -40.00062 | -12.70334 | 0° | 0km/h | 159087m | 0m/s | -33.8°C | 0.8% | 6.3hPa | 2.3V | 00:00:00 | 00:00:00 | 00:00:00 | |
| AA1-15 | 2026-09-02 12:53:27 | -40.00062 | -12.70334 | 0° | 0km/h | 159087m | 0m/s | -34.4°C | 0.8% | 6.4hPa | 2.3V | 00:00:00 | 00:00:00 | 00:00:00 | |
| AA1-15 | 2026-09-02 12:53:16 | -40.00062 | -12.70334 | 0° | 0km/h | 159087m | 0m/s | -34.9°C | 0.8% | 6.4hPa | 2.3V | 00:00:00 | 00:00:00 | 00:00:00 | |
| AA1-15 | 2026-09-02 12:53:05 | -40.00062 | -12.70334 | 0° | 0km/h | 159087m | 0m/s | -35°C | 0.8% | 6.5hPa | 2.3V | 00:00:00 | 00:00:00 | 00:00:00 | |
| AA1-15 | 2026-09-02 12:52:54 | -40.00062 | -12.70334 | 0° | 0km/h | 159087m | 0m/s | -35.3°C | 0.9% | 6.7hPa | 2.3V | 00:00:00 | 00:00:00 | 00:00:00 | |
| AA1-15 | 2026-09-02 12:52:42 | -40.00062 | -12.70334 | 0° | 0km/h | 159087m | 0m/s | -35.2°C | 0.8% | 6.7hPa | 2.3V | 00:00:00 | 00:00:00 | 00:00:00 | |
| AA1-15 | 2026-09-02 12:52:30 | -40.00062 | -12.70334 | 0° | 0km/h | 159087m | 0m/s | -34.9°C | 0.8% | 6.8hPa | 2.3V | 00:00:00 | 00:00:00 | 00:00:00 | |
| AA1-15 | 2026-09-02 12:52:21 | -40.00062 | -12.70334 | 0° | 0km/h | 159087m | 0m/s | -34.9°C | 0.7% | 7hPa | 2.3V | 00:00:00 | 00:00:00 | 00:00:00 | |
| AA1-15 | 2026-09-02 12:52:10 | -40.00062 | -12.70334 | 0° | 0km/h | 159087m | 0m/s | -34.8°C | 0.8% | 7hPa | 2.3V | 00:00:00 | 00:00:00 | 00:00:00 | |
| AA1-15 | 2026-09-02 12:51:59 | -40.00062 | -12.70334 | 0° | 0km/h | 159087m | 0m/s | -34.8°C | 0.7% | 7.1hPa | 2.3V | 00:00:00 | 00:00:00 | 00:00:00 | |
| AA1-15 | 2026-09-02 12:51:50 | -40.00062 | -12.70334 | 0° | 0km/h | 159087m | 0m/s | -35.7°C | 0.7% | 7.2hPa | 2.3V | 00:00:00 | 00:00:00 | 00:00:00 | |
| AA1-15 | 2026-09-02 12:51:39 | -40.00062 | -12.70334 | 0° | 0km/h | 159087m | 0m/s | -36.2°C | 0.7% | 7.2hPa | 2.3V | 00:00:00 | 00:00:00 | 00:00:00 | |
| AA1-15 | 2026-09-02 12:51:28 | -40.00062 | -12.70334 | 0° | 0km/h | 159087m | 0m/s | -36.7°C | 0.6% | 7.4hPa | 2.3V | 00:00:00 | 00:00:00 | 00:00:00 | |
| AA1-15 | 2026-09-02 12:51:17 | -40.00062 | -12.70334 | 0° | 0km/h | 159087m | 0m/s | -36.8°C | 0.6% | 7.4hPa | 2.3V | 00:00:00 | 00:00:00 | 00:00:00 | |
| AA1-15 | 2026-09-02 12:51:06 | -40.00062 | -12.70334 | 0° | 0km/h | 159087m | 0m/s | -37.3°C | 0.6% | 7.5hPa | 2.3V | 00:00:00 | 00:00:00 | 00:00:00 | |
| AA1-15 | 2026-09-02 12:50:55 | -40.00062 | -12.70334 | 0° | 0km/h | 159087m | 0m/s | -37.7°C | 0.6% | 7.7hPa | 2.3V | 00:00:00 | 00:00:00 | 00:00:00 | |
| AA1-15 | 2026-09-02 12:50:44 | -40.00062 | -12.70334 | 0° | 0km/h | 159087m | 0m/s | -38°C | 0.6% | 7.8hPa | 2.3V | 00:00:00 | 00:00:00 | 00:00:00 | |
| AA1-15 | 2026-09-02 12:50:34 | -40.00062 | -12.70334 | 0° | 0km/h | 159087m | 0m/s | -38.1°C | 0.7% | 7.8hPa | 2.3V | 00:00:00 | 00:00:00 | 00:00:00 | |
| AA1-15 | 2026-09-02 12:50:24 | -40.00062 | -12.70334 | 0° | 0km/h | 159087m | 0m/s | -38.3°C | 0.7% | 7.9hPa | 2.3V | 00:00:00 | 00:00:00 | 00:00:00 | |
| AA1-15 | 2026-09-02 12:50:13 | -40.00062 | -12.70334 | 0° | 0km/h | 159087m | 0m/s | -38.5°C | 0.8% | 8hPa | 2.3V | 00:00:00 | 00:00:00 | 00:00:00 | |
| AA1-15 | 2026-09-02 12:50:03 | -40.00062 | -12.70334 | 0° | 0km/h | 159087m | 0m/s | -38.6°C | 0.8% | 8.1hPa | 2.3V | 00:00:00 | 00:00:00 | 00:00:00 | |
| AA1-15 | 2026-09-02 12:49:53 | -40.00062 | -12.70334 | 0° | 0km/h | 159087m | 0m/s | -38.7°C | 0.8% | 8.3hPa | 2.3V | 00:00:00 | 00:00:00 | 00:00:00 | |
| AA1-15 | 2026-09-02 12:49:42 | -40.00062 | -12.70334 | 0° | 0km/h | 159087m | 0m/s | -38.8°C | 0.7% | 8.3hPa | 2.3V | 00:00:00 | 00:00:00 | 00:00:00 | |
| AA1-15 | 2026-09-02 12:49:31 | -40.00062 | -12.70334 | 0° | 0km/h | 159087m | 0m/s | -38.7°C | 0.8% | 8.4hPa | 2.3V | 00:00:00 | 00:00:00 | 00:00:00 | |
| AA1-15 | 2026-09-02 12:49:20 | -40.00062 | -12.70334 | 0° | 0km/h | 159087m | 0m/s | -38.9°C | 0.7% | 8.6hPa | 2.3V | 00:00:00 | 00:00:00 | 00:00:00 | |
| AA1-15 | 2026-09-02 12:49:10 | -40.00062 | -12.70334 | 0° | 0km/h | 159087m | 0m/s | -39.3°C | 0.8% | 8.7hPa | 2.3V | 00:00:00 | 00:00:00 | 00:00:00 | |
| AA1-15 | 2026-09-02 12:49:00 | -40.00062 | -12.70334 | 0° | 0km/h | 159087m | 0m/s | -39.5°C | 0.8% | 8.8hPa | 2.3V | 00:00:00 | 00:00:00 | 00:00:00 | |
| AA1-15 | 2026-09-02 12:48:49 | -40.00062 | -12.70334 | 0° | 0km/h | 159087m | 0m/s | -39.6°C | 0.8% | 8.9hPa | 2.3V | 00:00:00 | 00:00:00 | 00:00:00 | |
| AA1-15 | 2026-09-02 12:48:39 | -40.00062 | -12.70334 | 0° | 0km/h | 159087m | 0m/s | -39.2°C | 0.9% | 9hPa | 2.3V | 00:00:00 | 00:00:00 | 00:00:00 | |
| AA1-15 | 2026-09-02 12:48:28 | -40.00062 | -12.70334 | 0° | 0km/h | 159087m | 0m/s | -39.3°C | 0.9% | 9.1hPa | 2.3V | 00:00:00 | 00:00:00 | 00:00:00 | |
| AA1-15 | 2026-09-02 12:48:17 | -40.00062 | -12.70334 | 0° | 0km/h | 159087m | 0m/s | -39.6°C | 0.9% | 9.2hPa | 2.3V | 00:00:00 | 00:00:00 | 00:00:00 | |
| AA1-15 | 2026-09-02 12:48:07 | -40.00062 | -12.70334 | 0° | 0km/h | 159087m | 0m/s | -39.7°C | 0.9% | 9.3hPa | 2.3V | 00:00:00 | 00:00:00 | 00:00:00 | |
| AA1-15 | 2026-09-02 12:47:55 | -40.00062 | -12.70334 | 0° | 0km/h | 159087m | 0m/s | -39.5°C | 0.9% | 9.5hPa | 2.3V | 00:00:00 | 00:00:00 | 00:00:00 | |
| AA1-15 | 2026-09-02 12:47:44 | -40.00062 | -12.70334 | 0° | 0km/h | 159087m | 0m/s | -39.5°C | 0.9% | 9.6hPa | 2.3V | 00:00:00 | 00:00:00 | 00:00:00 | |
| AA1-15 | 2026-09-02 12:47:33 | -40.00062 | -12.70334 | 0° | 0km/h | 159087m | 0m/s | -39.6°C | 1% | 9.7hPa | 2.3V | 00:00:00 | 00:00:00 | 00:00:00 | |
| AA1-15 | 2026-09-02 12:47:22 | -40.00062 | -12.70334 | 0° | 0km/h | 159087m | 0m/s | -39.4°C | 1% | 9.8hPa | 2.3V | 00:00:00 | 00:00:00 | 00:00:00 | |
| AA1-15 | 2026-09-02 12:47:11 | -40.00062 | -12.70334 | 0° | 0km/h | 159087m | 0m/s | -39.4°C | 1% | 9.9hPa | 2.3V | 00:00:00 | 00:00:00 | 00:00:00 | |
| AA1-15 | 2026-09-02 12:47:01 | -40.00062 | -12.70334 | 0° | 0km/h | 159087m | 0m/s | -39.5°C | 1% | 10hPa | 2.3V | 00:00:00 | 00:00:00 | 00:00:00 | |
| AA1-15 | 2026-09-02 12:46:51 | -40.00062 | -12.70334 | 0° | 0km/h | 159087m | 0m/s | -39.7°C | 1% | 10.2hPa | 2.3V | 00:00:00 | 00:00:00 | 00:00:00 | |
| AA1-15 | 2026-09-02 12:46:40 | -40.00062 | -12.70334 | 0° | 0km/h | 159087m | 0m/s | -39.9°C | 1.1% | 10.3hPa | 2.3V | 00:00:00 | 00:00:00 | 00:00:00 | |
| AA1-15 | 2026-09-02 12:46:30 | -40.00062 | -12.70334 | 0° | 0km/h | 159087m | 0m/s | -40°C | 1.1% | 10.4hPa | 2.3V | 00:00:00 | 00:00:00 | 00:00:00 | |
| AA1-15 | 2026-09-02 12:46:19 | -40.00062 | -12.70334 | 0° | 0km/h | 159087m | 0m/s | -39.8°C | 1.1% | 10.5hPa | 2.3V | 00:00:00 | 00:00:00 | 00:00:00 | |
| AA1-15 | 2026-09-02 12:46:08 | -40.00062 | -12.70334 | 0° | 0km/h | 159087m | 0m/s | -40.1°C | 1.1% | 10.6hPa | 2.3V | 00:00:00 | 00:00:00 | 00:00:00 | |
| AA1-15 | 2026-09-02 12:45:58 | -40.00062 | -12.70334 | 0° | 0km/h | 159087m | 0m/s | -40.2°C | 1.1% | 10.7hPa | 2.3V | 00:00:00 | 00:00:00 | 00:00:00 | |
| AA1-15 | 2026-09-02 12:45:47 | -40.00062 | -12.70334 | 0° | 0km/h | 159087m | 0m/s | -40.6°C | 1.2% | 10.9hPa | 2.3V | 00:00:00 | 00:00:00 | 00:00:00 | |
| AA1-15 | 2026-09-02 12:45:36 | -40.00062 | -12.70334 | 0° | 0km/h | 159087m | 0m/s | -40.5°C | 1.2% | 11hPa | 2.3V | 00:00:00 | 00:00:00 | 00:00:00 | |
| AA1-15 | 2026-09-02 12:45:26 | -40.00062 | -12.70334 | 0° | 0km/h | 159087m | 0m/s | -40.5°C | 1.2% | 11.1hPa | 2.3V | 00:00:00 | 00:00:00 | 00:00:00 | |
| AA1-15 | 2026-09-02 12:45:14 | -40.00062 | -12.70334 | 0° | 0km/h | 159087m | 0m/s | -40.3°C | 1.2% | 11.3hPa | 2.3V | 00:00:00 | 00:00:00 | 00:00:00 | |
| AA1-15 | 2026-09-02 12:45:04 | -40.00062 | -12.70334 | 0° | 0km/h | 159087m | 0m/s | -40.7°C | 1.3% | 11.4hPa | 2.3V | 00:00:00 | 00:00:00 | 00:00:00 | |
| AA1-15 | 2026-09-02 12:44:53 | -40.00062 | -12.70334 | 0° | 0km/h | 159087m | 0m/s | -41°C | 1.3% | 11.6hPa | 2.3V | 00:00:00 | 00:00:00 | 00:00:00 | |
| AA1-15 | 2026-09-02 12:44:40 | -40.00062 | -12.70334 | 0° | 0km/h | 159087m | 0m/s | -41.2°C | 1.4% | 11.7hPa | 2.3V | 00:00:00 | 00:00:00 | 00:00:00 | |
| AA1-15 | 2026-09-02 12:44:31 | -40.00062 | -12.70334 | 0° | 0km/h | 159087m | 0m/s | -41.7°C | 1.4% | 11.8hPa | 2.3V | 00:00:00 | 00:00:00 | 00:00:00 | |
| AA1-15 | 2026-09-02 12:44:18 | -40.00062 | -12.70334 | 0° | 0km/h | 159087m | 0m/s | -42°C | 1.4% | 11.9hPa | 2.3V | 00:00:00 | 00:00:00 | 00:00:00 | |
| AA1-15 | 2026-09-02 12:44:08 | -40.00062 | -12.70334 | 0° | 0km/h | 159087m | 0m/s | -42.2°C | 1.5% | 12.1hPa | 2.3V | 00:00:00 | 00:00:00 | 00:00:00 | |
| AA1-15 | 2026-09-02 12:43:56 | -40.00062 | -12.70334 | 0° | 0km/h | 159087m | 0m/s | -42.7°C | 1.6% | 12.2hPa | 2.3V | 00:00:00 | 00:00:00 | 00:00:00 | |
| AA1-15 | 2026-09-02 12:43:45 | -40.00062 | -12.70334 | 0° | 0km/h | 159087m | 0m/s | -43.2°C | 1.7% | 12.3hPa | 2.3V | 00:00:00 | 00:00:00 | 00:00:00 | |
| AA1-15 | 2026-09-02 12:43:35 | -40.00062 | -12.70334 | 0° | 0km/h | 159087m | 0m/s | -43.3°C | 1.8% | 12.4hPa | 2.3V | 00:00:00 | 00:00:00 | 00:00:00 | |
| AA1-15 | 2026-09-02 12:43:24 | -40.00062 | -12.70334 | 0° | 0km/h | 159087m | 0m/s | -43.7°C | 2.1% | 12.6hPa | 2.3V | 00:00:00 | 00:00:00 | 00:00:00 | |
| AA1-15 | 2026-09-02 12:43:13 | -40.00062 | -12.70334 | 0° | 0km/h | 159087m | 0m/s | -43.7°C | 2.2% | 12.7hPa | 2.3V | 00:00:00 | 00:00:00 | 00:00:00 | |
| AA1-15 | 2026-09-02 12:43:03 | -40.00062 | -12.70334 | 0° | 0km/h | 159087m | 0m/s | -44°C | 2.4% | 12.8hPa | 2.3V | 00:00:00 | 00:00:00 | 00:00:00 | |
| AA1-15 | 2026-09-02 12:42:52 | -40.00062 | -12.70334 | 0° | 0km/h | 159087m | 0m/s | -44°C | 2.6% | 13hPa | 2.3V | 00:00:00 | 00:00:00 | 00:00:00 | |
| AA1-15 | 2026-09-02 12:42:41 | -40.00062 | -12.70334 | 0° | 0km/h | 159087m | 0m/s | -44.1°C | 2.7% | 13.1hPa | 2.3V | 00:00:00 | 00:00:00 | 00:00:00 | |
| AA1-15 | 2026-09-02 12:42:30 | -40.00062 | -12.70334 | 0° | 0km/h | 159087m | 0m/s | -44°C | 2.8% | 13.3hPa | 2.3V | 00:00:00 | 00:00:00 | 00:00:00 | |
| AA1-15 | 2026-09-02 12:42:20 | -40.00062 | -12.70334 | 0° | 0km/h | 159087m | 0m/s | -44.3°C | 2.9% | 13.4hPa | 2.3V | 00:00:00 | 00:00:00 | 00:00:00 | |
| AA1-15 | 2026-09-02 12:42:09 | 55.08280 | 19.73153 | 0° | 0km/h | 159087m | 0m/s | -45°C | 3.1% | 13.6hPa | 2.4V | 00:00:00 | 00:00:00 | 00:00:00 | |
| AA1-15 | 2026-09-02 12:41:59 | 55.08266 | 19.73030 | 79° | 47km/h | 159087m | 2.3m/s | -44.8°C | 3.4% | 13.8hPa | 2.4V | 00:00:00 | 00:00:00 | 00:00:00 | |
| AA1-15 | 2026-09-02 12:41:49 | 55.08246 | 19.72930 | 269° | 13km/h | 2635m | 8.2m/s | -44.6°C | 3.5% | 13.9hPa | 2.4V | 00:00:00 | 00:00:00 | 00:00:00 | |
| AA1-15 | 2026-09-02 12:41:38 | 55.08254 | 19.72989 | 269° | 15km/h | 2553m | 8.1m/s | -44.7°C | 3.8% | 14hPa | 2.4V | 00:00:00 | 00:00:00 | 00:00:00 | |
| AA1-15 | 2026-09-02 12:41:27 | 55.08245 | 19.73069 | 270° | 16km/h | 2486m | 8m/s | -44.5°C | 3.7% | 14.2hPa | 2.4V | 00:00:00 | 00:00:00 | 00:00:00 | |
| AA1-15 | 2026-09-02 12:41:16 | 55.08241 | 19.73124 | 271° | 13km/h | 2396m | 8.1m/s | -44.4°C | 3.6% | 14.4hPa | 2.4V | 00:00:00 | 00:00:00 | 00:00:00 | |
| AA1-15 | 2026-09-02 12:41:06 | 55.08231 | 19.73173 | 270° | 13km/h | 2339m | 8.1m/s | -44.5°C | 3.6% | 14.5hPa | 2.4V | 00:00:00 | 00:00:00 | 00:00:00 | |
| AA1-15 | 2026-09-02 12:40:55 | 55.08242 | 19.73259 | 270° | 16km/h | 2206m | 8m/s | -44.6°C | 3.4% | 14.7hPa | 2.4V | 00:00:00 | 00:00:00 | 00:00:00 | |
| AA1-15 | 2026-09-02 12:40:44 | 55.08251 | 19.73333 | 270° | 13km/h | 2102m | 8.1m/s | -45.1°C | 3.5% | 14.9hPa | 2.4V | 00:00:00 | 00:00:00 | 00:00:00 | |
| AA1-15 | 2026-09-02 12:40:34 | 55.08272 | 19.73397 | 270° | 16km/h | 1999m | 8m/s | -45.6°C | 3.4% | 15hPa | 2.4V | 00:00:00 | 00:00:00 | 00:00:00 | |
| AA1-15 | 2026-09-02 12:40:34 | 55.08266 | 19.73412 | 271° | 13km/h | 1994m | 7.8m/s | -45.8°C | 3.4% | 15hPa | 2.4V | 00:00:00 | 00:00:00 | 00:00:00 | |
| AA1-15 | 2026-09-02 12:40:31 | 55.08255 | 19.73436 | 279° | 13km/h | 1982m | 8.9m/s | -45.9°C | 3.5% | 15.1hPa | 2.4V | 00:00:00 | 00:00:00 | 00:00:00 | |
| AA1-15 | 2026-09-02 12:40:29 | 55.08258 | 19.73457 | 270° | 13km/h | 1951m | 7.9m/s | -46.2°C | 3.4% | 15.1hPa | 2.4V | 00:00:00 | 00:00:00 | 00:00:00 | |
| AA1-15 | 2026-09-02 12:40:27 | 55.08259 | 19.73463 | 272° | 13km/h | 1943m | 8m/s | -46.3°C | 3.5% | 15.1hPa | 2.4V | 00:00:00 | 00:00:00 | 00:00:00 | |
| AA1-15 | 2026-09-02 12:40:26 | 55.08260 | 19.73469 | 271° | 15km/h | 1935m | 8.1m/s | -46.4°C | 3.5% | 15.2hPa | 2.4V | 00:00:00 | 00:00:00 | 00:00:00 | |
| AA1-15 | 2026-09-02 12:40:24 | 55.08262 | 19.73475 | 270° | 16km/h | 1924m | 7.9m/s | -46.5°C | 3.5% | 15.2hPa | 2.4V | 00:00:00 | 00:00:00 | 00:00:00 | |
| AA1-15 | 2026-09-02 12:40:22 | 55.08264 | 19.73486 | 270° | 13km/h | 1904m | 8m/s | -46.6°C | 3.4% | 15.2hPa | 2.4V | 00:00:00 | 00:00:00 | 00:00:00 | |
| AA1-15 | 2026-09-02 12:40:21 | 55.08264 | 19.73500 | 278° | 18km/h | 1886m | 9.6m/s | -46.5°C | 3.4% | 15.2hPa | 2.4V | 00:00:00 | 00:00:00 | 00:00:00 | |
| AA1-15 | 2026-09-02 12:40:19 | 55.08262 | 19.73509 | 266° | 16km/h | 1879m | 8.9m/s | -46.6°C | 3.4% | 15.2hPa | 2.4V | 00:00:00 | 00:00:00 | 00:00:00 | |
| AA1-15 | 2026-09-02 12:40:18 | 55.08261 | 19.73515 | 270° | 13km/h | 1862m | 8.1m/s | -46.8°C | 3.4% | 15.3hPa | 2.4V | 00:00:00 | 00:00:00 | 00:00:00 | |
| AA1-15 | 2026-09-02 12:40:17 | 55.08262 | 19.73519 | 270° | 15km/h | 1853m | 8m/s | -46.8°C | 3.5% | 15.3hPa | 2.4V | 00:00:00 | 00:00:00 | 00:00:00 | |
| AA1-15 | 2026-09-02 12:40:15 | 55.08263 | 19.73523 | 271° | 16km/h | 1843m | 8m/s | -46.8°C | 3.5% | 15.3hPa | 2.4V | 00:00:00 | 00:00:00 | 00:00:00 | |
| AA1-15 | 2026-09-02 12:40:13 | 55.08259 | 19.73533 | 270° | 13km/h | 1824m | 7.9m/s | -47°C | 3.5% | 15.4hPa | 2.4V | 00:00:00 | 00:00:00 | 00:00:00 | |
| AA1-15 | 2026-09-02 12:40:12 | 55.08259 | 19.73537 | 270° | 15km/h | 1820m | 8.1m/s | -47°C | 3.6% | 15.3hPa | 2.4V | 00:00:00 | 00:00:00 | 00:00:00 | |
| AA1-15 | 2026-09-02 12:40:10 | 55.08260 | 19.73547 | 270° | 13km/h | 1805m | 8m/s | -47°C | 3.6% | 15.4hPa | 2.4V | 00:00:00 | 00:00:00 | 00:00:00 | |
| AA1-15 | 2026-09-02 12:40:09 | 55.08259 | 19.73553 | 269° | 13km/h | 1797m | 8.1m/s | -47.1°C | 3.6% | 15.4hPa | 2.4V | 00:00:00 | 00:00:00 | 00:00:00 | |
| AA1-15 | 2026-09-02 12:40:06 | 55.08257 | 19.73573 | 273° | 13km/h | 1774m | 8.3m/s | -47.2°C | 3.6% | 15.4hPa | 2.4V | 00:00:00 | 00:00:00 | 00:00:00 | |
| AA1-15 | 2026-09-02 12:40:04 | 55.08257 | 19.73578 | 270° | 13km/h | 1765m | 8m/s | -47.3°C | 3.7% | 15.5hPa | 2.4V | 00:00:00 | 00:00:00 | 00:00:00 | |
| AA1-15 | 2026-09-02 12:40:03 | 55.08259 | 19.73585 | 272° | 15km/h | 1750m | 8m/s | -47.3°C | 3.7% | 15.5hPa | 2.4V | 00:00:00 | 00:00:00 | 00:00:00 | |
| AA1-15 | 2026-09-02 12:40:02 | 55.08259 | 19.73590 | 269° | 16km/h | 1742m | 8.1m/s | -47.3°C | 3.7% | 15.5hPa | 2.4V | 00:00:00 | 00:00:00 | 00:00:00 | |
| AA1-15 | 2026-09-02 12:40:00 | 55.08256 | 19.73597 | 269° | 13km/h | 1736m | 8.2m/s | -47.4°C | 3.7% | 15.5hPa | 2.4V | 00:00:00 | 00:00:00 | 00:00:00 | |
| AA1-15 | 2026-09-02 12:39:59 | 55.08244 | 19.73649 | 269° | 13km/h | 1722m | 7.9m/s | -47.5°C | 3.8% | 15.6hPa | 2.4V | 00:00:00 | 00:00:00 | 00:00:00 | |
| AA1-15 | 2026-09-02 12:39:58 | 55.08243 | 19.73656 | 268° | 13km/h | 1715m | 7.7m/s | -47.5°C | 3.9% | 15.6hPa | 2.4V | 00:00:00 | 00:00:00 | 00:00:00 | |
| AA1-15 | 2026-09-02 12:39:56 | 55.08243 | 19.73661 | 270° | 15km/h | 1709m | 8.4m/s | -47.6°C | 3.9% | 15.6hPa | 2.4V | 00:00:00 | 00:00:00 | 00:00:00 | |
| AA1-15 | 2026-09-02 12:39:55 | 55.08243 | 19.73665 | 271° | 15km/h | 1703m | 8.1m/s | -47.6°C | 3.9% | 15.6hPa | 2.4V | 00:00:00 | 00:00:00 | 00:00:00 | |
| AA1-15 | 2026-09-02 12:39:54 | 55.08238 | 19.73682 | 270° | 16km/h | 1693m | 7.9m/s | -47.6°C | 4% | 15.6hPa | 2.4V | 00:00:00 | 00:00:00 | 00:00:00 | |
| AA1-15 | 2026-09-02 12:39:53 | 55.08238 | 19.73682 | 270° | 13km/h | 1688m | 8.1m/s | -47.6°C | 4% | 15.7hPa | 2.4V | 00:00:00 | 00:00:00 | 00:00:00 | |
| AA1-15 | 2026-09-02 12:39:50 | 55.08239 | 19.73678 | 270° | 13km/h | 1684m | 8m/s | -47.7°C | 4% | 15.7hPa | 2.4V | 00:00:00 | 00:00:00 | 00:00:00 | |
| AA1-15 | 2026-09-02 12:39:49 | 55.08241 | 19.73669 | 270° | 15km/h | 1680m | 8.2m/s | -47.6°C | 4.1% | 15.7hPa | 2.4V | 00:00:00 | 00:00:00 | 00:00:00 | |
| AA1-15 | 2026-09-02 12:39:48 | 55.08246 | 19.73745 | 261° | 97km/h | 1664m | 7.9m/s | -47.6°C | 4.1% | 15.7hPa | 2.4V | 00:00:00 | 00:00:00 | 00:00:00 | |
| AA1-15 | 2026-09-02 12:39:47 | 55.08253 | 19.73787 | 253° | 97km/h | 1657m | 8.1m/s | -47.5°C | 4.1% | 15.8hPa | 2.4V | 00:00:00 | 00:00:00 | 00:00:00 | |
| AA1-15 | 2026-09-02 12:39:43 | 55.08270 | 19.73861 | 241° | 99km/h | 1637m | 8.4m/s | -47.6°C | 4.2% | 15.8hPa | 2.4V | 00:00:00 | 00:00:00 | 00:00:00 | |
| AA1-15 | 2026-09-02 12:39:42 | 55.08285 | 19.73900 | 238° | 93km/h | 1626m | 8m/s | -47.4°C | 4.2% | 15.8hPa | 2.4V | 00:00:00 | 00:00:00 | 00:00:00 | |
| AA1-15 | 2026-09-02 12:39:41 | 55.08357 | 19.74016 | 213° | 100km/h | 1580m | 8.1m/s | -47.4°C | 4.2% | 15.9hPa | 2.4V | 00:00:00 | 00:00:00 | 00:00:00 | |
| AA1-15 | 2026-09-02 12:39:39 | 55.08375 | 19.74036 | 208° | 91km/h | 1574m | 8.1m/s | -47.6°C | 4.2% | 15.9hPa | 2.4V | 00:00:00 | 00:00:00 | 00:00:00 | |
| AA1-15 | 2026-09-02 12:39:38 | 55.08396 | 19.74054 | 202° | 95km/h | 1567m | 8.3m/s | -47.5°C | 4.2% | 15.9hPa | 2.4V | 00:00:00 | 00:00:00 | 00:00:00 | |
| AA1-15 | 2026-09-02 12:39:37 | 55.08419 | 19.74067 | 193° | 99km/h | 1560m | 8m/s | -47.4°C | 4.2% | 15.9hPa | 2.4V | 00:00:00 | 00:00:00 | 00:00:00 | |
| AA1-15 | 2026-09-02 12:39:35 | 55.08444 | 19.74075 | 189° | 95km/h | 1551m | 7.9m/s | -47.5°C | 4.3% | 15.9hPa | 2.4V | 00:00:00 | 00:00:00 | 00:00:00 | |
| AA1-15 | 2026-09-02 12:39:31 | 55.08517 | 19.74072 | 169° | 97km/h | 1526m | 8m/s | -47.5°C | 4.3% | 16hPa | 2.4V | 00:00:00 | 00:00:00 | 00:00:00 | |
| AA1-15 | 2026-09-02 12:39:30 | 55.08566 | 19.74048 | 159° | 99km/h | 1508m | 7.9m/s | -47.4°C | 4.3% | 16hPa | 2.4V | 00:00:00 | 00:00:00 | 00:00:00 | |
| AA1-15 | 2026-09-02 12:39:27 | 55.08665 | 19.73921 | 125° | 95km/h | 1463m | 8.1m/s | -47.5°C | 4.2% | 16.1hPa | 2.4V | 00:00:00 | 00:00:00 | 00:00:00 | |
| AA1-15 | 2026-09-02 12:39:26 | 55.08678 | 19.73886 | 119° | 99km/h | 1454m | 9.1m/s | -47.4°C | 4.2% | 16.1hPa | 2.4V | 00:00:00 | 00:00:00 | 00:00:00 | |
| AA1-15 | 2026-09-02 12:39:24 | 55.08689 | 19.73851 | 115° | 95km/h | 1450m | 8.5m/s | -47.3°C | 4.2% | 16.1hPa | 2.4V | 00:00:00 | 00:00:00 | 00:00:00 | |
| AA1-15 | 2026-09-02 12:39:22 | 55.08702 | 19.73736 | 97° | 99km/h | 1424m | 8.4m/s | -47.4°C | 4.2% | 16.2hPa | 2.4V | 00:00:00 | 00:00:00 | 00:00:00 | |
| AA1-15 | 2026-09-02 12:39:21 | 55.08701 | 19.73700 | 94° | 95km/h | 1412m | 8.1m/s | -47.4°C | 4.2% | 16.2hPa | 2.4V | 00:00:00 | 00:00:00 | 00:00:00 | |
| AA1-15 | 2026-09-02 12:39:18 | 55.08699 | 19.73662 | 86° | 95km/h | 1402m | 8m/s | -47.5°C | 4.2% | 16.2hPa | 2.4V | 00:00:00 | 00:00:00 | 00:00:00 | |
| AA1-15 | 2026-09-02 12:39:15 | 55.08682 | 19.73594 | 74° | 95km/h | 1380m | 8.3m/s | -47.3°C | 4.1% | 16.2hPa | 2.4V | 00:00:00 | 00:00:00 | 00:00:00 | |
| AA1-15 | 2026-09-02 12:39:14 | 55.08660 | 19.73526 | 60° | 93km/h | 1363m | 8.2m/s | -47.3°C | 4.1% | 16.3hPa | 2.4V | 00:00:00 | 00:00:00 | 00:00:00 | |
| AA1-15 | 2026-09-02 12:39:13 | 55.08647 | 19.73493 | 56° | 97km/h | 1355m | 8.1m/s | -47.3°C | 4.1% | 16.3hPa | 2.4V | 00:00:00 | 00:00:00 | 00:00:00 | |
| AA1-15 | 2026-09-02 12:39:12 | 55.08625 | 19.73473 | 50° | 97km/h | 1341m | 7.9m/s | -47.3°C | 4.1% | 16.4hPa | 2.4V | 00:00:00 | 00:00:00 | 00:00:00 | |
| AA1-15 | 2026-09-02 12:39:10 | 55.08608 | 19.73441 | 41° | 95km/h | 1337m | 8m/s | -47.4°C | 4.1% | 16.3hPa | 2.4V | 00:00:00 | 00:00:00 | 00:00:00 | |
| AA1-15 | 2026-09-02 12:39:08 | 55.08568 | 19.73387 | 29° | 95km/h | 1331m | 8.8m/s | -47.4°C | 4.1% | 16.4hPa | 2.4V | 00:00:00 | 00:00:00 | 00:00:00 | |
| AA1-15 | 2026-09-02 12:39:07 | 55.08525 | 19.73293 | 19° | 95km/h | 1335m | 8.1m/s | -47.4°C | 4.1% | 16.4hPa | 2.4V | 00:00:00 | 00:00:00 | 00:00:00 | |
| AA1-15 | 2026-09-02 12:39:06 | 55.08500 | 19.73281 | 11° | 97km/h | 1324m | 8.2m/s | -47.4°C | 4% | 16.4hPa | 2.4V | 00:00:00 | 00:00:00 | 00:00:00 | |
| AA1-15 | 2026-09-02 12:39:04 | 55.08448 | 19.73270 | 0° | 95km/h | 1301m | 8m/s | -47.4°C | 4% | 16.5hPa | 2.4V | 00:00:00 | 00:00:00 | 00:00:00 | |
| AA1-15 | 2026-09-02 12:39:02 | 55.08398 | 19.73267 | 360° | 100km/h | 1280m | 8m/s | -47.4°C | 4% | 16.5hPa | 2.4V | 00:00:00 | 00:00:00 | 00:00:00 | |
| AA1-15 | 2026-09-02 12:39:00 | 55.08374 | 19.73265 | 0° | 93km/h | 1271m | 8m/s | -47.4°C | 4% | 16.5hPa | 2.4V | 00:00:00 | 00:00:00 | 00:00:00 | |
| AA1-15 | 2026-09-02 12:38:59 | 55.08350 | 19.73264 | 0° | 100km/h | 1263m | 8m/s | -47.4°C | 3.9% | 16.5hPa | 2.4V | 00:00:00 | 00:00:00 | 00:00:00 | |
| AA1-15 | 2026-09-02 12:38:58 | 55.08183 | 19.73255 | 0° | 93km/h | 1204m | 8m/s | -47.5°C | 3.9% | 16.6hPa | 2.4V | 00:00:00 | 00:00:00 | 00:00:00 | |
| AA1-15 | 2026-09-02 12:38:55 | 55.08159 | 19.73254 | 0° | 95km/h | 1195m | 8.1m/s | -47.5°C | 3.9% | 16.6hPa | 2.4V | 00:00:00 | 00:00:00 | 00:00:00 | |
| AA1-15 | 2026-09-02 12:38:50 | 55.08111 | 19.73253 | 0° | 93km/h | 1177m | 8m/s | -47.6°C | 3.9% | 16.7hPa | 2.4V | 00:00:00 | 00:00:00 | 00:00:00 | |
| AA1-15 | 2026-09-02 12:38:47 | 55.08061 | 19.73251 | 360° | 95km/h | 1159m | 8m/s | -47.5°C | 3.9% | 16.7hPa | 2.4V | 00:00:00 | 00:00:00 | 00:00:00 | |
| AA1-15 | 2026-09-02 12:38:46 | 55.08036 | 19.73250 | 0° | 100km/h | 1151m | 8m/s | -47.6°C | 3.9% | 16.7hPa | 2.4V | 00:00:00 | 00:00:00 | 00:00:00 | |
| AA1-15 | 2026-09-02 12:38:45 | 55.07941 | 19.73209 | 43° | 100km/h | 1116m | 8m/s | -47.5°C | 4% | 16.8hPa | 2.4V | 00:00:00 | 00:00:00 | 00:00:00 | |
| AA1-15 | 2026-09-02 12:38:44 | 55.07924 | 19.73175 | 59° | 97km/h | 1108m | 8m/s | -47.4°C | 3.9% | 16.8hPa | 2.4V | 00:00:00 | 00:00:00 | 00:00:00 | |
| AA1-15 | 2026-09-02 12:38:41 | 55.07915 | 19.73134 | 80° | 97km/h | 1099m | 8m/s | -47.4°C | 3.9% | 16.9hPa | 2.4V | 00:00:00 | 00:00:00 | 00:00:00 | |
| AA1-15 | 2026-09-02 12:38:39 | 55.07914 | 19.73092 | 99° | 97km/h | 1091m | 8m/s | -47.5°C | 4% | 16.8hPa | 2.4V | 00:00:00 | 00:00:00 | 00:00:00 | |
| AA1-15 | 2026-09-02 12:38:38 | 55.07920 | 19.73051 | 116° | 97km/h | 1082m | 8.1m/s | -47.5°C | 4% | 16.9hPa | 2.4V | 00:00:00 | 00:00:00 | 00:00:00 | |
| AA1-15 | 2026-09-02 12:38:37 | 55.07950 | 19.72990 | 153° | 99km/h | 1064m | 8.1m/s | -47.5°C | 4% | 16.9hPa | 2.4V | 00:00:00 | 00:00:00 | 00:00:00 | |
| AA1-15 | 2026-09-02 12:38:35 | 55.07971 | 19.72976 | 171° | 95km/h | 1056m | 8m/s | -47.4°C | 3.9% | 16.9hPa | 2.4V | 00:00:00 | 00:00:00 | 00:00:00 | |
| AA1-15 | 2026-09-02 12:38:33 | 55.08026 | 19.72997 | 224° | 95km/h | 1031m | 8m/s | -47.4°C | 3.9% | 17hPa | 2.4V | 00:00:00 | 00:00:00 | 00:00:00 | |
| AA1-15 | 2026-09-02 12:38:32 | 55.08029 | 19.73091 | 270° | 95km/h | 1014m | 8.1m/s | -47.5°C | 3.9% | 17hPa | 2.4V | 00:00:00 | 00:00:00 | 00:00:00 | |
| AA1-15 | 2026-09-02 12:38:28 | 55.08026 | 19.73130 | 270° | 95km/h | 1007m | 8m/s | -47.5°C | 4% | 17.1hPa | 2.4V | 00:00:00 | 00:00:00 | 00:00:00 | |
| AA1-15 | 2026-09-02 12:38:27 | 55.08022 | 19.73169 | 270° | 99km/h | 1000m | 8m/s | -47.5°C | 4% | 17.1hPa | 2.4V | 00:00:00 | 00:00:00 | 00:00:00 | |
| AA1-15 | 2026-09-02 12:38:26 | 55.08019 | 19.73208 | 270° | 99km/h | 994m | 8m/s | -47.5°C | 4% | 17.1hPa | 2.4V | 00:00:00 | 00:00:00 | 00:00:00 | |
| AA1-15 | 2026-09-02 12:38:25 | 55.08016 | 19.73247 | 270° | 95km/h | 988m | 8m/s | -47.5°C | 4% | 17.1hPa | 2.4V | 00:00:00 | 00:00:00 | 00:00:00 | |
| AA1-15 | 2026-09-02 12:38:24 | 55.08013 | 19.73282 | 270° | 95km/h | 982m | 8m/s | -47.5°C | 4% | 17.1hPa | 2.4V | 00:00:00 | 00:00:00 | 00:00:00 | |
| AA1-15 | 2026-09-02 12:38:22 | 55.07994 | 19.73431 | 270° | 95km/h | 964m | 7.9m/s | -47.4°C | 4% | 17.2hPa | 2.4V | 00:00:00 | 00:00:00 | 00:00:00 | |
| AA1-15 | 2026-09-02 12:38:22 | 55.07985 | 19.73462 | 270° | 99km/h | 960m | 8.1m/s | -47.4°C | 3.9% | 17.2hPa | 2.4V | 00:00:00 | 00:00:00 | 00:00:00 | |
| AA1-15 | 2026-09-02 12:38:20 | 55.07970 | 19.73488 | 270° | 99km/h | 959m | 8.1m/s | -47.5°C | 4% | 17.2hPa | 2.4V | 00:00:00 | 00:00:00 | 00:00:00 | |
| AA1-15 | 2026-09-02 12:38:18 | 55.07959 | 19.73517 | 270° | 95km/h | 955m | 8.1m/s | -47.6°C | 4% | 17.2hPa | 2.4V | 00:00:00 | 00:00:00 | 00:00:00 | |
| AA1-15 | 2026-09-02 12:38:15 | 55.07927 | 19.73565 | 271° | 95km/h | 949m | 8.1m/s | -47.6°C | 4.1% | 17.3hPa | 2.4V | 00:00:00 | 00:00:00 | 00:00:00 | |
| AA1-15 | 2026-09-02 12:38:14 | 55.07893 | 19.73565 | 262° | 97km/h | 952m | 7.9m/s | -47.6°C | 4% | 17.3hPa | 2.4V | 00:00:00 | 00:00:00 | 00:00:00 | |
| AA1-15 | 2026-09-02 12:38:13 | 55.07846 | 19.73544 | 257° | 95km/h | 961m | 8m/s | -47.5°C | 4.1% | 17.3hPa | 2.4V | 00:00:00 | 00:00:00 | 00:00:00 | |
| AA1-15 | 2026-09-02 12:38:12 | 55.07477 | 19.73429 | 205° | 89km/h | 1167m | 4.8m/s | -47.6°C | 4.1% | 17.4hPa | 2.4V | 00:00:00 | 00:00:00 | 00:00:00 | |
| AA1-15 | 2026-09-02 12:38:07 | 55.07387 | 19.73402 | 196° | 93km/h | 1446m | 6.1m/s | -47.5°C | 4.2% | 17.4hPa | 2.4V | 00:00:00 | 00:00:00 | 00:00:00 | |
| AA1-15 | 2026-09-02 12:37:57 | 54.92134 | 19.89600 | 18° | 7km/h | 159087m | 7.6m/s | -47.9°C | 4.2% | 17.6hPa | 2.4V | 00:00:00 | 00:00:00 | 00:00:00 | |
| AA1-15 | 2026-09-02 12:37:47 | 54.92120 | 19.89637 | 271° | 13km/h | 2630m | 8.1m/s | -47.8°C | 4.2% | 17.8hPa | 2.4V | 00:00:00 | 00:00:00 | 00:00:00 | |
| AA1-15 | 2026-09-02 12:37:36 | 54.92127 | 19.89691 | 261° | 15km/h | 2541m | 7.7m/s | -47.7°C | 4.2% | 18hPa | 2.4V | 00:00:00 | 00:00:00 | 00:00:00 | |
| AA1-15 | 2026-09-02 12:37:25 | 54.92133 | 19.89775 | 271° | 15km/h | 2470m | 8.1m/s | -47.9°C | 4.4% | 18.2hPa | 2.4V | 00:00:00 | 00:00:00 | 00:00:00 | |
| AA1-15 | 2026-09-02 12:37:14 | 54.92118 | 19.89868 | 270° | 16km/h | 2348m | 8.1m/s | -48.3°C | 4.5% | 18.4hPa | 2.4V | 00:00:00 | 00:00:00 | 00:00:00 | |
| AA1-15 | 2026-09-02 12:37:03 | 54.92113 | 19.89909 | 268° | 13km/h | 2240m | 8.3m/s | -48.3°C | 4.6% | 18.7hPa | 2.4V | 00:00:00 | 00:00:00 | 00:00:00 | |
| AA1-15 | 2026-09-02 12:36:53 | 54.92109 | 19.89966 | 269° | 13km/h | 2152m | 8m/s | -48.4°C | 4.7% | 18.9hPa | 2.4V | 00:00:00 | 00:00:00 | 00:00:00 | |
| AA1-15 | 2026-09-02 12:36:41 | 54.92105 | 19.90043 | 269° | 15km/h | 2067m | 8m/s | -48.4°C | 4.7% | 19.1hPa | 2.4V | 00:00:00 | 00:00:00 | 00:00:00 | |
| AA1-15 | 2026-09-02 12:36:30 | 54.92121 | 19.90135 | 269° | 18km/h | 1995m | 8.1m/s | -48.2°C | 4.6% | 19.3hPa | 2.4V | 00:00:00 | 00:00:00 | 00:00:00 | |
| AA1-15 | 2026-09-02 12:36:28 | 54.92121 | 19.90142 | 274° | 13km/h | 1986m | 8.5m/s | -48.2°C | 4.6% | 19.3hPa | 2.4V | 00:00:00 | 00:00:00 | 00:00:00 | |
| AA1-15 | 2026-09-02 12:36:26 | 54.92121 | 19.90162 | 269° | 15km/h | 1967m | 7.9m/s | -48.3°C | 4.6% | 19.4hPa | 2.4V | 00:00:00 | 00:00:00 | 00:00:00 | |
| AA1-15 | 2026-09-02 12:36:24 | 54.92123 | 19.90169 | 269° | 13km/h | 1960m | 8m/s | -48.2°C | 4.6% | 19.4hPa | 2.4V | 00:00:00 | 00:00:00 | 00:00:00 | |
| AA1-15 | 2026-09-02 12:36:23 | 54.92123 | 19.90176 | 269° | 15km/h | 1952m | 8.2m/s | -48.4°C | 4.6% | 19.4hPa | 2.4V | 00:00:00 | 00:00:00 | 00:00:00 | |
| AA1-15 | 2026-09-02 12:36:22 | 54.92124 | 19.90182 | 269° | 13km/h | 1944m | 8.3m/s | -48.3°C | 4.6% | 19.4hPa | 2.4V | 00:00:00 | 00:00:00 | 00:00:00 | |
| AA1-15 | 2026-09-02 12:36:20 | 54.92121 | 19.90203 | 270° | 16km/h | 1917m | 8.1m/s | -48.3°C | 4.6% | 19.5hPa | 2.4V | 00:00:00 | 00:00:00 | 00:00:00 | |
| AA1-15 | 2026-09-02 12:36:19 | 54.92122 | 19.90211 | 270° | 13km/h | 1910m | 8m/s | -48.3°C | 4.6% | 19.5hPa | 2.4V | 00:00:00 | 00:00:00 | 00:00:00 | |
| AA1-15 | 2026-09-02 12:36:16 | 54.92122 | 19.90217 | 270° | 16km/h | 1902m | 8m/s | -48.3°C | 4.5% | 19.6hPa | 2.4V | 00:00:00 | 00:00:00 | 00:00:00 | |
| AA1-15 | 2026-09-02 12:36:15 | 54.92123 | 19.90223 | 269° | 13km/h | 1894m | 8m/s | -48.3°C | 4.6% | 19.6hPa | 2.4V | 00:00:00 | 00:00:00 | 00:00:00 | |
| AA1-15 | 2026-09-02 12:36:14 | 54.92125 | 19.90237 | 271° | 13km/h | 1878m | 7.9m/s | -48.3°C | 4.6% | 19.6hPa | 2.4V | 00:00:00 | 00:00:00 | 00:00:00 | |
| AA1-15 | 2026-09-02 12:36:13 | 54.92125 | 19.90245 | 270° | 16km/h | 1871m | 8m/s | -48.2°C | 4.5% | 19.7hPa | 2.4V | 00:00:00 | 00:00:00 | 00:00:00 | |
| AA1-15 | 2026-09-02 12:36:11 | 54.92126 | 19.90252 | 270° | 13km/h | 1864m | 8m/s | -48.2°C | 4.5% | 19.7hPa | 2.4V | 00:00:00 | 00:00:00 | 00:00:00 | |
| AA1-15 | 2026-09-02 12:36:09 | 54.92133 | 19.90271 | 269° | 15km/h | 1843m | 8m/s | -48.2°C | 4.6% | 19.7hPa | 2.4V | 00:00:00 | 00:00:00 | 00:00:00 | |
| AA1-15 | 2026-09-02 12:36:08 | 54.92137 | 19.90277 | 271° | 13km/h | 1836m | 8m/s | -48.3°C | 4.6% | 19.8hPa | 2.4V | 00:00:00 | 00:00:00 | 00:00:00 | |
| AA1-15 | 2026-09-02 12:36:06 | 54.92142 | 19.90286 | 270° | 16km/h | 1831m | 7.5m/s | -48.3°C | 4.6% | 19.8hPa | 2.4V | 00:00:00 | 00:00:00 | 00:00:00 | |
| AA1-15 | 2026-09-02 12:36:04 | 54.92117 | 19.90302 | 270° | 15km/h | 1828m | 8.2m/s | -48.2°C | 4.5% | 19.8hPa | 2.4V | 00:00:00 | 00:00:00 | 00:00:00 | |
| AA1-15 | 2026-09-02 12:36:03 | 54.92121 | 19.90296 | 263° | 11km/h | 1814m | 8.7m/s | -48.3°C | 4.5% | 19.8hPa | 2.4V | 00:00:00 | 00:00:00 | 00:00:00 | |
| AA1-15 | 2026-09-02 12:36:02 | 54.92122 | 19.90304 | 270° | 15km/h | 1806m | 8.1m/s | -48.3°C | 4.5% | 19.9hPa | 2.4V | 00:00:00 | 00:00:00 | 00:00:00 | |
| AA1-15 | 2026-09-02 12:36:01 | 54.92123 | 19.90310 | 262° | 11km/h | 1797m | 8.8m/s | -48.2°C | 4.5% | 19.9hPa | 2.4V | 00:00:00 | 00:00:00 | 00:00:00 | |
| AA1-15 | 2026-09-02 12:35:59 | 54.92123 | 19.90333 | 270° | 16km/h | 1785m | 8.1m/s | -48.3°C | 4.6% | 19.9hPa | 2.4V | 00:00:00 | 00:00:00 | 00:00:00 | |
| AA1-15 | 2026-09-02 12:35:57 | 54.92124 | 19.90350 | 270° | 16km/h | 1773m | 8.1m/s | -48.2°C | 4.5% | 19.9hPa | 2.4V | 00:00:00 | 00:00:00 | 00:00:00 | |
| AA1-15 | 2026-09-02 12:35:56 | 54.92126 | 19.90359 | 270° | 13km/h | 1766m | 8m/s | -48.3°C | 4.6% | 20hPa | 2.4V | 00:00:00 | 00:00:00 | 00:00:00 | |
| AA1-15 | 2026-09-02 12:35:54 | 54.92127 | 19.90370 | 270° | 13km/h | 1751m | 8m/s | -48.1°C | 4.5% | 20hPa | 2.4V | 00:00:00 | 00:00:00 | 00:00:00 | |
| AA1-15 | 2026-09-02 12:35:53 | 54.92127 | 19.90375 | 270° | 16km/h | 1743m | 8m/s | -48.1°C | 4.6% | 20.1hPa | 2.4V | 00:00:00 | 00:00:00 | 00:00:00 | |
| AA1-15 | 2026-09-02 12:35:51 | 54.92128 | 19.90382 | 270° | 15km/h | 1732m | 8m/s | -47.9°C | 4.6% | 20hPa | 2.4V | 00:00:00 | 00:00:00 | 00:00:00 | |
| AA1-15 | 2026-09-02 12:35:50 | 54.92130 | 19.90390 | 270° | 13km/h | 1725m | 8.1m/s | -47.9°C | 4.6% | 20.1hPa | 2.4V | 00:00:00 | 00:00:00 | 00:00:00 | |
| AA1-15 | 2026-09-02 12:35:49 | 54.92132 | 19.90424 | 269° | 95km/h | 1712m | 8.1m/s | -47.9°C | 4.6% | 20.1hPa | 2.4V | 00:00:00 | 00:00:00 | 00:00:00 | |
| AA1-15 | 2026-09-02 12:35:47 | 54.92135 | 19.90465 | 261° | 93km/h | 1706m | 8.1m/s | -48°C | 4.7% | 20.1hPa | 2.4V | 00:00:00 | 00:00:00 | 00:00:00 | |
| AA1-15 | 2026-09-02 12:35:45 | 54.92181 | 19.90644 | 233° | 95km/h | 1677m | 8m/s | -47.8°C | 4.8% | 20.2hPa | 2.4V | 00:00:00 | 00:00:00 | 00:00:00 | |
| AA1-15 | 2026-09-02 12:35:42 | 54.92195 | 19.90671 | 226° | 97km/h | 1672m | 8.1m/s | -47.7°C | 4.8% | 20.2hPa | 2.4V | 00:00:00 | 00:00:00 | 00:00:00 | |
| AA1-15 | 2026-09-02 12:35:40 | 54.92211 | 19.90699 | 219° | 95km/h | 1668m | 8.3m/s | -47.7°C | 4.8% | 20.3hPa | 2.4V | 00:00:00 | 00:00:00 | 00:00:00 | |
| AA1-15 | 2026-09-02 12:35:38 | 54.92306 | 19.90787 | 189° | 97km/h | 1635m | 8.1m/s | -47.6°C | 4.8% | 20.4hPa | 2.4V | 00:00:00 | 00:00:00 | 00:00:00 | |
| AA1-15 | 2026-09-02 12:35:37 | 54.92356 | 19.90788 | 176° | 95km/h | 1615m | 8.1m/s | -47.5°C | 4.9% | 20.4hPa | 2.4V | 00:00:00 | 00:00:00 | 00:00:00 | |
| AA1-15 | 2026-09-02 12:35:34 | 54.92379 | 19.90783 | 171° | 95km/h | 1605m | 8.1m/s | -47.4°C | 4.9% | 20.5hPa | 2.4V | 00:00:00 | 00:00:00 | 00:00:00 | |
| AA1-15 | 2026-09-02 12:35:32 | 54.92403 | 19.90773 | 165° | 100km/h | 1596m | 8m/s | -47.4°C | 4.8% | 20.5hPa | 2.4V | 00:00:00 | 00:00:00 | 00:00:00 | |
| AA1-15 | 2026-09-02 12:35:31 | 54.92427 | 19.90758 | 159° | 99km/h | 1586m | 8.1m/s | -47.5°C | 4.8% | 20.5hPa | 2.4V | 00:00:00 | 00:00:00 | 00:00:00 | |
| AA1-15 | 2026-09-02 12:35:30 | 54.92449 | 19.90740 | 151° | 93km/h | 1576m | 8m/s | -47.5°C | 4.8% | 20.5hPa | 2.4V | 00:00:00 | 00:00:00 | 00:00:00 | |
| AA1-15 | 2026-09-02 12:35:28 | 54.92469 | 19.90717 | 146° | 97km/h | 1567m | 8.2m/s | -47.5°C | 4.8% | 20.5hPa | 2.4V | 00:00:00 | 00:00:00 | 00:00:00 | |
| AA1-15 | 2026-09-02 12:35:26 | 54.92534 | 19.90592 | 119° | 97km/h | 1531m | 8.1m/s | -47.5°C | 4.8% | 20.6hPa | 2.4V | 00:00:00 | 00:00:00 | 00:00:00 | |
| AA1-15 | 2026-09-02 12:35:25 | 54.92546 | 19.90557 | 114° | 99km/h | 1521m | 8.3m/s | -47.5°C | 4.8% | 20.6hPa | 2.4V | 00:00:00 | 00:00:00 | 00:00:00 | |
| AA1-15 | 2026-09-02 12:35:24 | 54.92557 | 19.90521 | 110° | 97km/h | 1509m | 8.3m/s | -47.5°C | 4.9% | 20.7hPa | 2.4V | 00:00:00 | 00:00:00 | 00:00:00 | |
| AA1-15 | 2026-09-02 12:35:21 | 54.92569 | 19.90477 | 105° | 97km/h | 1491m | 8.3m/s | -47.5°C | 4.8% | 20.7hPa | 2.4V | 00:00:00 | 00:00:00 | 00:00:00 | |
| AA1-15 | 2026-09-02 12:35:20 | 54.92579 | 19.90418 | 98° | 97km/h | 1468m | 8.4m/s | -47.5°C | 4.8% | 20.7hPa | 2.4V | 00:00:00 | 00:00:00 | 00:00:00 | |
| AA1-15 | 2026-09-02 12:35:18 | 54.92591 | 19.90331 | 86° | 95km/h | 1434m | 8.1m/s | -47.6°C | 4.8% | 20.7hPa | 2.4V | 00:00:00 | 00:00:00 | 00:00:00 | |
| AA1-15 | 2026-09-02 12:35:17 | 54.92588 | 19.90291 | 79° | 99km/h | 1423m | 8.3m/s | -47.5°C | 4.8% | 20.8hPa | 2.4V | 00:00:00 | 00:00:00 | 00:00:00 | |
| AA1-15 | 2026-09-02 12:35:16 | 54.92576 | 19.90212 | 70° | 97km/h | 1403m | 10.2m/s | -47.5°C | 4.9% | 20.8hPa | 2.4V | 00:00:00 | 00:00:00 | 00:00:00 | |
| AA1-15 | 2026-09-02 12:35:14 | 54.92566 | 19.90175 | 61° | 95km/h | 1393m | 8.6m/s | -47.5°C | 4.9% | 20.8hPa | 2.4V | 00:00:00 | 00:00:00 | 00:00:00 | |
| AA1-15 | 2026-09-02 12:35:12 | 54.92536 | 19.90110 | 49° | 93km/h | 1376m | 8m/s | -47.6°C | 4.9% | 20.8hPa | 2.4V | 00:00:00 | 00:00:00 | 00:00:00 | |
| AA1-15 | 2026-09-02 12:35:10 | 54.92498 | 19.90053 | 36° | 91km/h | 1360m | 8.1m/s | -47.5°C | 4.9% | 20.9hPa | 2.4V | 00:00:00 | 00:00:00 | 00:00:00 | |
| AA1-15 | 2026-09-02 12:35:07 | 54.92433 | 19.89993 | 19° | 95km/h | 1333m | 8.2m/s | -47.6°C | 4.9% | 20.9hPa | 2.4V | 00:00:00 | 00:00:00 | 00:00:00 | |
| AA1-15 | 2026-09-02 12:35:05 | 54.92356 | 19.89960 | 0° | 95km/h | 1306m | 8.4m/s | -47.6°C | 4.9% | 21hPa | 2.4V | 00:00:00 | 00:00:00 | 00:00:00 | |
| AA1-15 | 2026-09-02 12:35:04 | 54.92333 | 19.89961 | 0° | 95km/h | 1296m | 8.2m/s | -47.6°C | 4.9% | 21hPa | 2.4V | 00:00:00 | 00:00:00 | 00:00:00 | |
| AA1-15 | 2026-09-02 12:35:02 | 54.92309 | 19.89961 | 0° | 100km/h | 1287m | 8.1m/s | -47.6°C | 4.9% | 21hPa | 2.4V | 00:00:00 | 00:00:00 | 00:00:00 | |
| AA1-15 | 2026-09-02 12:35:00 | 54.92261 | 19.89963 | 0° | 100km/h | 1265m | 8.1m/s | -47.7°C | 4.9% | 21.1hPa | 2.4V | 00:00:00 | 00:00:00 | 00:00:00 | |
| AA1-15 | 2026-09-02 12:34:59 | 54.92237 | 19.89965 | 0° | 95km/h | 1255m | 8.1m/s | -47.7°C | 4.9% | 21.1hPa | 2.4V | 00:00:00 | 00:00:00 | 00:00:00 | |
| AA1-15 | 2026-09-02 12:34:58 | 54.92213 | 19.89966 | 0° | 100km/h | 1246m | 8.1m/s | -47.8°C | 4.9% | 21.1hPa | 2.4V | 00:00:00 | 00:00:00 | 00:00:00 | |
| AA1-15 | 2026-09-02 12:34:56 | 54.92163 | 19.89969 | 0° | 95km/h | 1224m | 7.9m/s | -47.9°C | 4.9% | 21.2hPa | 2.4V | 00:00:00 | 00:00:00 | 00:00:00 | |
| AA1-15 | 2026-09-02 12:34:55 | 54.92137 | 19.89969 | 0° | 93km/h | 1213m | 8m/s | -48°C | 4.9% | 21.2hPa | 2.4V | 00:00:00 | 00:00:00 | 00:00:00 | |
| AA1-15 | 2026-09-02 12:34:54 | 54.92063 | 19.89969 | 360° | 95km/h | 1184m | 8m/s | -48.1°C | 4.9% | 21.3hPa | 2.4V | 00:00:00 | 00:00:00 | 00:00:00 | |
| AA1-15 | 2026-09-02 12:34:52 | 54.92039 | 19.89970 | 0° | 100km/h | 1175m | 8m/s | -48.1°C | 4.9% | 21.3hPa | 2.4V | 00:00:00 | 00:00:00 | 00:00:00 | |
| AA1-15 | 2026-09-02 12:34:50 | 54.92014 | 19.89970 | 0° | 91km/h | 1164m | 7.5m/s | -48.2°C | 4.9% | 21.3hPa | 2.4V | 00:00:00 | 00:00:00 | 00:00:00 | |
| AA1-15 | 2026-09-02 12:34:49 | 54.91964 | 19.89969 | 360° | 95km/h | 1144m | 8.6m/s | -48°C | 4.9% | 21.4hPa | 2.4V | 00:00:00 | 00:00:00 | 00:00:00 | |
| AA1-15 | 2026-09-02 12:34:48 | 54.91939 | 19.89969 | 0° | 100km/h | 1134m | 8.2m/s | -48.1°C | 4.9% | 21.4hPa | 2.4V | 00:00:00 | 00:00:00 | 00:00:00 | |
| AA1-15 | 2026-09-02 12:34:46 | 54.91914 | 19.89968 | 0° | 95km/h | 1126m | 8.9m/s | -48°C | 4.9% | 21.4hPa | 2.4V | 00:00:00 | 00:00:00 | 00:00:00 | |
| AA1-15 | 2026-09-02 12:34:45 | 54.91890 | 19.89966 | 6° | 95km/h | 1118m | 8.1m/s | -48°C | 4.9% | 21.4hPa | 2.4V | 00:00:00 | 00:00:00 | 00:00:00 | |
| AA1-15 | 2026-09-02 12:34:44 | 54.91868 | 19.89955 | 26° | 93km/h | 1111m | 7.9m/s | -48.1°C | 4.9% | 21.4hPa | 2.4V | 00:00:00 | 00:00:00 | 00:00:00 | |
| AA1-15 | 2026-09-02 12:34:42 | 54.91823 | 19.89858 | 80° | 99km/h | 1085m | 8.2m/s | -48.1°C | 4.9% | 21.4hPa | 2.4V | 00:00:00 | 00:00:00 | 00:00:00 | |
| AA1-15 | 2026-09-02 12:34:41 | 54.91823 | 19.89815 | 99° | 97km/h | 1077m | 8.2m/s | -48°C | 4.9% | 21.5hPa | 2.4V | 00:00:00 | 00:00:00 | 00:00:00 | |
| AA1-15 | 2026-09-02 12:34:40 | 54.91830 | 19.89775 | 115° | 97km/h | 1068m | 8.2m/s | -48°C | 4.8% | 21.5hPa | 2.4V | 00:00:00 | 00:00:00 | 00:00:00 | |
| AA1-15 | 2026-09-02 12:34:38 | 54.91844 | 19.89741 | 134° | 95km/h | 1061m | 8.2m/s | -48°C | 4.8% | 21.6hPa | 2.4V | 00:00:00 | 00:00:00 | 00:00:00 | |
| AA1-15 | 2026-09-02 12:34:37 | 54.91863 | 19.89716 | 153° | 99km/h | 1053m | 8.1m/s | -48°C | 4.9% | 21.6hPa | 2.4V | 00:00:00 | 00:00:00 | 00:00:00 | |
| AA1-15 | 2026-09-02 12:34:35 | 54.91909 | 19.89704 | 191° | 91km/h | 1040m | 8.1m/s | -48°C | 4.9% | 21.6hPa | 2.4V | 00:00:00 | 00:00:00 | 00:00:00 | |
| AA1-15 | 2026-09-02 12:34:33 | 54.91964 | 19.89771 | 242° | 97km/h | 1020m | 8.3m/s | -48°C | 4.9% | 21.7hPa | 2.4V | 00:00:00 | 00:00:00 | 00:00:00 | |
| AA1-15 | 2026-09-02 12:34:32 | 54.91974 | 19.89853 | 270° | 99km/h | 1009m | 8m/s | -47.9°C | 4.9% | 21.7hPa | 2.4V | 00:00:00 | 00:00:00 | 00:00:00 | |
| AA1-15 | 2026-09-02 12:34:30 | 54.91975 | 19.89897 | 270° | 95km/h | 1000m | 8.1m/s | -47.8°C | 4.9% | 21.7hPa | 2.4V | 00:00:00 | 00:00:00 | 00:00:00 | |
| AA1-15 | 2026-09-02 12:34:28 | 54.91976 | 19.89939 | 270° | 95km/h | 990m | 8m/s | -47.9°C | 4.9% | 21.8hPa | 2.4V | 00:00:00 | 00:00:00 | 00:00:00 | |
| AA1-15 | 2026-09-02 12:34:26 | 54.91976 | 19.90027 | 270° | 97km/h | 973m | 8m/s | -47.8°C | 4.9% | 21.8hPa | 2.4V | 00:00:00 | 00:00:00 | 00:00:00 | |
| AA1-15 | 2026-09-02 12:34:24 | 54.91982 | 19.90165 | 270° | 97km/h | 942m | 8.1m/s | -47.8°C | 5% | 21.9hPa | 2.4V | 00:00:00 | 00:00:00 | 00:00:00 | |
| AA1-15 | 2026-09-02 12:34:24 | 54.91982 | 19.90207 | 270° | 95km/h | 933m | 8m/s | -47.7°C | 5% | 21.9hPa | 2.4V | 00:00:00 | 00:00:00 | 00:00:00 | |
| AA1-15 | 2026-09-02 12:34:22 | 54.91983 | 19.90333 | 270° | 95km/h | 906m | 8.1m/s | -47.8°C | 5.1% | 21.9hPa | 2.4V | 00:00:00 | 00:00:00 | 00:00:00 | |
| AA1-15 | 2026-09-02 12:34:20 | 54.91983 | 19.90374 | 270° | 95km/h | 896m | 8m/s | -47.8°C | 5.2% | 22hPa | 2.4V | 00:00:00 | 00:00:00 | 00:00:00 | |
| AA1-15 | 2026-09-02 12:34:17 | 54.91982 | 19.90416 | 270° | 95km/h | 888m | 8m/s | -47.7°C | 5.2% | 22hPa | 2.4V | 00:00:00 | 00:00:00 | 00:00:00 | |
| AA1-15 | 2026-09-02 12:34:16 | 54.91982 | 19.90459 | 271° | 95km/h | 880m | 8m/s | -47.7°C | 5.1% | 22hPa | 2.4V | 00:00:00 | 00:00:00 | 00:00:00 | |
| AA1-15 | 2026-09-02 12:34:15 | 54.91983 | 19.90503 | 262° | 97km/h | 872m | 8.1m/s | -47.7°C | 5.1% | 22hPa | 2.4V | 00:00:00 | 00:00:00 | 00:00:00 | |
| AA1-15 | 2026-09-02 12:34:14 | 54.91987 | 19.90545 | 256° | 93km/h | 864m | 8m/s | -47.7°C | 5.2% | 22hPa | 2.4V | 00:00:00 | 00:00:00 | 00:00:00 | |
| AA1-15 | 2026-09-02 12:34:12 | 54.92342 | 19.90755 | 214° | 97km/h | 1004m | 7.5m/s | -47.5°C | 5.1% | 22.1hPa | 2.4V | 00:00:00 | 00:00:00 | 00:00:00 | |
| AA1-15 | 2026-09-02 12:34:11 | 54.92658 | 19.91361 | 195° | 91km/h | 970m | 6.5m/s | -47.5°C | 5.1% | 22.1hPa | 2.4V | 00:00:00 | 00:00:00 | 00:00:00 | |
| AA1-15 | 2026-09-02 12:34:03 | 54.88327 | 20.03962 | 236° | 22km/h | 159087m | 5.1m/s | -47.4°C | 5.1% | 22.3hPa | 2.4V | 00:00:00 | 00:00:00 | 00:00:00 | |
| AA1-15 | 2026-09-02 12:33:53 | 54.88352 | 20.04041 | 349° | 15km/h | 2961m | 8.3m/s | -47.4°C | 5.2% | 22.5hPa | 2.4V | 00:00:00 | 00:00:00 | 00:00:00 | |
| AA1-15 | 2026-09-02 12:33:42 | 54.88323 | 20.04066 | 0° | 16km/h | 2865m | 8.1m/s | -47.6°C | 5.2% | 22.7hPa | 2.4V | 00:00:00 | 00:00:00 | 00:00:00 | |
| AA1-15 | 2026-09-02 12:33:31 | 54.88277 | 20.04054 | 0° | 11km/h | 2773m | 8m/s | -47.7°C | 5.2% | 23hPa | 2.4V | 00:00:00 | 00:00:00 | 00:00:00 | |
| SP3BTT-10 | 2026-09-02 11:54:22 | 54.78701 | 18.01127 | 87° | 55km/h | 12350m | 6.6m/s | 0°C | 0% | 0hPa | 0V | 00:00:00 | 00:00:00 | 00:00:00 | |
| SP3BTT-10 | 2026-09-02 11:52:31 | 54.78349 | 17.98641 | 59° | 58km/h | 11771m | 5.3m/s | 0°C | 0% | 0hPa | 0V | 00:00:00 | 00:00:00 | 00:00:00 | |
| SP3BTT-10 | 2026-09-02 11:51:43 | 54.78246 | 17.97530 | 80° | 78km/h | 11515m | 5.7m/s | 0°C | 0% | 0hPa | 0V | 00:00:00 | 00:00:00 | 00:00:00 | |
| SP3BTT-10 | 2026-09-02 11:48:28 | 54.77641 | 17.91051 | 80° | 88km/h | 10444m | 5.4m/s | 0°C | 0% | 0hPa | 0V | 00:00:00 | 00:00:00 | 00:00:00 | |
| SP3BTT-10 | 2026-09-02 11:47:41 | 54.77458 | 17.89311 | 70° | 91km/h | 10210m | 9.5m/s | 0°C | 0% | 0hPa | 0V | 00:00:00 | 00:00:00 | 00:00:00 | |
| SP3BTT-10 | 2026-09-02 11:46:48 | 54.77204 | 17.87423 | 72° | 80km/h | 9902m | 4.8m/s | 0°C | 0% | 0hPa | 0V | 00:00:00 | 00:00:00 | 00:00:00 |